sensor_id;sensor_type;location;lat;lon;timestamp;P1;durP1;ratioP1;P2;durP2;ratioP2
65558;SDS011;52203;51.998;5.140;2023-03-23T00:01:27;9.88;;;4.22;;
65558;SDS011;52203;51.998;5.140;2023-03-23T00:03:57;12.73;;;4.63;;
65558;SDS011;52203;51.998;5.140;2023-03-23T00:06:26;8.38;;;4.32;;
65558;SDS011;52203;51.998;5.140;2023-03-23T00:08:54;7.30;;;4.38;;
65558;SDS011;52203;51.998;5.140;2023-03-23T00:11:24;8.32;;;3.83;;
65558;SDS011;52203;51.998;5.140;2023-03-23T00:13:54;7.13;;;3.83;;
65558;SDS011;52203;51.998;5.140;2023-03-23T00:16:23;9.63;;;4.20;;
65558;SDS011;52203;51.998;5.140;2023-03-23T00:19:04;7.82;;;3.75;;
65558;SDS011;52203;51.998;5.140;2023-03-23T00:21:35;10.02;;;4.30;;
65558;SDS011;52203;51.998;5.140;2023-03-23T00:24:05;8.03;;;4.60;;
65558;SDS011;52203;51.998;5.140;2023-03-23T00:26:33;7.18;;;3.80;;
65558;SDS011;52203;51.998;5.140;2023-03-23T00:29:03;7.60;;;3.50;;
65558;SDS011;52203;51.998;5.140;2023-03-23T00:31:29;6.45;;;3.40;;
65558;SDS011;52203;51.998;5.140;2023-03-23T00:34:02;6.88;;;3.13;;
65558;SDS011;52203;51.998;5.140;2023-03-23T00:36:33;6.93;;;2.95;;
65558;SDS011;52203;51.998;5.140;2023-03-23T00:39:00;5.63;;;3.38;;
65558;SDS011;52203;51.998;5.140;2023-03-23T00:41:28;6.32;;;3.25;;
65558;SDS011;52203;51.998;5.140;2023-03-23T00:43:55;5.95;;;3.10;;
65558;SDS011;52203;51.998;5.140;2023-03-23T00:46:21;7.97;;;3.30;;
65558;SDS011;52203;51.998;5.140;2023-03-23T00:48:47;6.72;;;3.70;;
65558;SDS011;52203;51.998;5.140;2023-03-23T00:51:15;10.40;;;4.00;;
65558;SDS011;52203;51.998;5.140;2023-03-23T00:53:41;10.85;;;4.18;;
65558;SDS011;52203;51.998;5.140;2023-03-23T00:56:08;9.38;;;3.85;;
65558;SDS011;52203;51.998;5.140;2023-03-23T00:58:34;6.88;;;3.40;;
65558;SDS011;52203;51.998;5.140;2023-03-23T01:01:01;5.90;;;3.40;;
65558;SDS011;52203;51.998;5.140;2023-03-23T01:03:27;6.85;;;3.30;;
65558;SDS011;52203;51.998;5.140;2023-03-23T01:05:53;6.32;;;3.30;;
65558;SDS011;52203;51.998;5.140;2023-03-23T01:08:20;7.05;;;3.70;;
65558;SDS011;52203;51.998;5.140;2023-03-23T01:10:46;7.88;;;4.35;;
65558;SDS011;52203;51.998;5.140;2023-03-23T01:13:13;9.02;;;3.80;;
65558;SDS011;52203;51.998;5.140;2023-03-23T01:15:39;6.70;;;3.78;;
65558;SDS011;52203;51.998;5.140;2023-03-23T01:18:05;8.27;;;3.30;;
65558;SDS011;52203;51.998;5.140;2023-03-23T01:20:31;9.02;;;3.67;;
65558;SDS011;52203;51.998;5.140;2023-03-23T01:22:57;7.03;;;3.45;;
65558;SDS011;52203;51.998;5.140;2023-03-23T01:25:29;8.05;;;3.75;;
65558;SDS011;52203;51.998;5.140;2023-03-23T01:27:56;6.25;;;3.00;;
65558;SDS011;52203;51.998;5.140;2023-03-23T01:30:23;6.95;;;3.13;;
65558;SDS011;52203;51.998;5.140;2023-03-23T01:32:49;7.03;;;3.90;;
65558;SDS011;52203;51.998;5.140;2023-03-23T01:35:15;7.40;;;3.42;;
65558;SDS011;52203;51.998;5.140;2023-03-23T01:37:41;4.75;;;2.90;;
65558;SDS011;52203;51.998;5.140;2023-03-23T01:40:07;6.60;;;3.05;;
65558;SDS011;52203;51.998;5.140;2023-03-23T01:42:34;8.20;;;3.47;;
65558;SDS011;52203;51.998;5.140;2023-03-23T01:50:40;5.47;;;2.58;;
65558;SDS011;52203;51.998;5.140;2023-03-23T01:53:32;5.60;;;3.47;;
65558;SDS011;52203;51.998;5.140;2023-03-23T01:56:02;6.40;;;3.13;;
65558;SDS011;52203;51.998;5.140;2023-03-23T01:58:31;5.13;;;2.78;;
65558;SDS011;52203;51.998;5.140;2023-03-23T02:00:59;6.68;;;3.33;;
65558;SDS011;52203;51.998;5.140;2023-03-23T02:03:28;6.25;;;3.50;;
65558;SDS011;52203;51.998;5.140;2023-03-23T02:05:57;7.65;;;2.80;;
65558;SDS011;52203;51.998;5.140;2023-03-23T02:08:27;7.03;;;3.13;;
65558;SDS011;52203;51.998;5.140;2023-03-23T02:10:55;5.40;;;3.22;;
65558;SDS011;52203;51.998;5.140;2023-03-23T02:13:21;5.65;;;3.10;;
65558;SDS011;52203;51.998;5.140;2023-03-23T02:15:49;6.85;;;3.28;;
65558;SDS011;52203;51.998;5.140;2023-03-23T02:34:20;5.70;;;3.10;;
65558;SDS011;52203;51.998;5.140;2023-03-23T02:36:56;5.63;;;2.83;;
65558;SDS011;52203;51.998;5.140;2023-03-23T02:39:37;5.82;;;2.80;;
65558;SDS011;52203;51.998;5.140;2023-03-23T02:42:10;4.38;;;2.90;;
65558;SDS011;52203;51.998;5.140;2023-03-23T02:44:40;6.10;;;3.10;;
65558;SDS011;52203;51.998;5.140;2023-03-23T02:47:11;5.20;;;3.35;;
65558;SDS011;52203;51.998;5.140;2023-03-23T02:49:41;5.30;;;2.83;;
65558;SDS011;52203;51.998;5.140;2023-03-23T02:52:14;7.00;;;2.70;;
65558;SDS011;52203;51.998;5.140;2023-03-23T02:54:44;6.15;;;2.85;;
65558;SDS011;52203;51.998;5.140;2023-03-23T02:57:12;4.65;;;2.35;;
65558;SDS011;52203;51.998;5.140;2023-03-23T02:59:39;4.82;;;2.50;;
65558;SDS011;52203;51.998;5.140;2023-03-23T03:02:06;6.95;;;2.40;;
65558;SDS011;52203;51.998;5.140;2023-03-23T03:04:35;6.45;;;2.58;;
65558;SDS011;52203;51.998;5.140;2023-03-23T03:09:54;5.40;;;2.17;;
65558;SDS011;52203;51.998;5.140;2023-03-23T03:15:05;10.05;;;2.42;;
65558;SDS011;52203;51.998;5.140;2023-03-23T03:17:47;3.95;;;2.13;;
65558;SDS011;52203;51.998;5.140;2023-03-23T03:20:21;4.63;;;2.22;;
65558;SDS011;52203;51.998;5.140;2023-03-23T03:22:51;6.95;;;2.20;;
65558;SDS011;52203;51.998;5.140;2023-03-23T03:25:18;4.70;;;2.13;;
65558;SDS011;52203;51.998;5.140;2023-03-23T03:27:45;3.63;;;2.17;;
65558;SDS011;52203;51.998;5.140;2023-03-23T03:30:15;4.30;;;2.30;;
65558;SDS011;52203;51.998;5.140;2023-03-23T03:32:44;5.15;;;2.00;;
65558;SDS011;52203;51.998;5.140;2023-03-23T03:35:14;5.18;;;2.00;;
65558;SDS011;52203;51.998;5.140;2023-03-23T03:37:40;3.55;;;2.20;;
65558;SDS011;52203;51.998;5.140;2023-03-23T03:40:07;7.10;;;2.25;;
65558;SDS011;52203;51.998;5.140;2023-03-23T03:42:42;3.50;;;2.30;;
65558;SDS011;52203;51.998;5.140;2023-03-23T03:45:10;3.55;;;2.08;;
65558;SDS011;52203;51.998;5.140;2023-03-23T03:47:37;4.93;;;1.88;;
65558;SDS011;52203;51.998;5.140;2023-03-23T03:50:03;4.18;;;2.03;;
65558;SDS011;52203;51.998;5.140;2023-03-23T03:52:29;4.45;;;2.00;;
65558;SDS011;52203;51.998;5.140;2023-03-23T03:54:55;5.78;;;2.63;;
65558;SDS011;52203;51.998;5.140;2023-03-23T03:57:21;3.15;;;1.80;;
65558;SDS011;52203;51.998;5.140;2023-03-23T03:59:47;6.18;;;1.92;;
65558;SDS011;52203;51.998;5.140;2023-03-23T04:02:13;4.38;;;2.10;;
65558;SDS011;52203;51.998;5.140;2023-03-23T04:04:41;5.05;;;1.80;;
65558;SDS011;52203;51.998;5.140;2023-03-23T04:07:08;5.30;;;2.05;;
65558;SDS011;52203;51.998;5.140;2023-03-23T04:09:38;5.75;;;1.60;;
65558;SDS011;52203;51.998;5.140;2023-03-23T04:12:05;3.90;;;1.90;;
65558;SDS011;52203;51.998;5.140;2023-03-23T04:14:31;5.18;;;1.80;;
65558;SDS011;52203;51.998;5.140;2023-03-23T04:16:56;6.63;;;1.70;;
65558;SDS011;52203;51.998;5.140;2023-03-23T04:19:24;7.57;;;1.90;;
65558;SDS011;52203;51.998;5.140;2023-03-23T04:21:50;5.55;;;1.77;;
65558;SDS011;52203;51.998;5.140;2023-03-23T04:24:16;6.95;;;2.30;;
65558;SDS011;52203;51.998;5.140;2023-03-23T04:26:46;5.03;;;1.67;;
65558;SDS011;52203;51.998;5.140;2023-03-23T04:29:12;4.35;;;2.17;;
65558;SDS011;52203;51.998;5.140;2023-03-23T04:31:38;5.43;;;1.42;;
65558;SDS011;52203;51.998;5.140;2023-03-23T04:34:05;5.07;;;1.70;;
65558;SDS011;52203;51.998;5.140;2023-03-23T04:36:31;5.68;;;1.67;;
65558;SDS011;52203;51.998;5.140;2023-03-23T04:38:59;2.75;;;1.30;;
65558;SDS011;52203;51.998;5.140;2023-03-23T04:41:25;4.80;;;1.58;;
65558;SDS011;52203;51.998;5.140;2023-03-23T04:43:51;6.97;;;1.95;;
65558;SDS011;52203;51.998;5.140;2023-03-23T04:46:18;4.18;;;1.42;;
65558;SDS011;52203;51.998;5.140;2023-03-23T04:48:46;4.65;;;1.83;;
65558;SDS011;52203;51.998;5.140;2023-03-23T04:51:12;6.47;;;1.60;;
65558;SDS011;52203;51.998;5.140;2023-03-23T04:53:38;9.02;;;1.60;;
65558;SDS011;52203;51.998;5.140;2023-03-23T04:56:03;5.22;;;1.60;;
65558;SDS011;52203;51.998;5.140;2023-03-23T04:58:29;9.40;;;2.25;;
65558;SDS011;52203;51.998;5.140;2023-03-23T05:00:58;5.65;;;1.60;;
65558;SDS011;52203;51.998;5.140;2023-03-23T05:03:24;5.60;;;1.70;;
65558;SDS011;52203;51.998;5.140;2023-03-23T05:05:50;3.78;;;1.38;;
65558;SDS011;52203;51.998;5.140;2023-03-23T05:08:17;7.07;;;1.60;;
65558;SDS011;52203;51.998;5.140;2023-03-23T05:10:50;4.88;;;1.65;;
65558;SDS011;52203;51.998;5.140;2023-03-23T05:13:17;6.40;;;1.90;;
65558;SDS011;52203;51.998;5.140;2023-03-23T05:15:43;6.38;;;1.45;;
65558;SDS011;52203;51.998;5.140;2023-03-23T05:18:08;8.10;;;2.05;;
65558;SDS011;52203;51.998;5.140;2023-03-23T05:20:35;6.28;;;1.65;;
65558;SDS011;52203;51.998;5.140;2023-03-23T05:23:00;9.15;;;1.80;;
65558;SDS011;52203;51.998;5.140;2023-03-23T05:25:26;6.30;;;1.67;;
65558;SDS011;52203;51.998;5.140;2023-03-23T05:27:51;6.97;;;1.73;;
65558;SDS011;52203;51.998;5.140;2023-03-23T05:30:19;6.03;;;1.95;;
65558;SDS011;52203;51.998;5.140;2023-03-23T05:32:46;7.70;;;1.70;;
65558;SDS011;52203;51.998;5.140;2023-03-23T05:35:18;10.35;;;1.80;;
65558;SDS011;52203;51.998;5.140;2023-03-23T05:37:45;9.48;;;1.52;;
65558;SDS011;52203;51.998;5.140;2023-03-23T05:40:11;6.82;;;1.65;;
65558;SDS011;52203;51.998;5.140;2023-03-23T05:42:38;6.50;;;1.50;;
65558;SDS011;52203;51.998;5.140;2023-03-23T05:45:10;8.00;;;1.40;;
65558;SDS011;52203;51.998;5.140;2023-03-23T05:47:36;6.18;;;2.17;;
65558;SDS011;52203;51.998;5.140;2023-03-23T05:50:02;6.95;;;1.83;;
65558;SDS011;52203;51.998;5.140;2023-03-23T05:52:30;3.95;;;1.70;;
65558;SDS011;52203;51.998;5.140;2023-03-23T05:54:57;5.30;;;1.52;;
65558;SDS011;52203;51.998;5.140;2023-03-23T05:57:23;8.15;;;1.75;;
65558;SDS011;52203;51.998;5.140;2023-03-23T05:59:48;5.85;;;1.98;;
65558;SDS011;52203;51.998;5.140;2023-03-23T06:02:14;8.00;;;1.67;;
65558;SDS011;52203;51.998;5.140;2023-03-23T06:04:40;5.30;;;1.88;;
65558;SDS011;52203;51.998;5.140;2023-03-23T06:07:06;6.28;;;1.58;;
65558;SDS011;52203;51.998;5.140;2023-03-23T06:09:32;6.80;;;1.90;;
65558;SDS011;52203;51.998;5.140;2023-03-23T06:11:58;8.23;;;2.08;;
65558;SDS011;52203;51.998;5.140;2023-03-23T06:14:23;4.75;;;1.70;;
65558;SDS011;52203;51.998;5.140;2023-03-23T06:16:49;6.07;;;1.60;;
65558;SDS011;52203;51.998;5.140;2023-03-23T06:19:15;8.40;;;1.95;;
65558;SDS011;52203;51.998;5.140;2023-03-23T06:21:41;6.15;;;2.22;;
65558;SDS011;52203;51.998;5.140;2023-03-23T06:24:07;12.02;;;2.20;;
65558;SDS011;52203;51.998;5.140;2023-03-23T06:26:34;6.90;;;1.98;;
65558;SDS011;52203;51.998;5.140;2023-03-23T06:29:02;4.05;;;1.98;;
65558;SDS011;52203;51.998;5.140;2023-03-23T06:31:36;3.10;;;1.52;;
65558;SDS011;52203;51.998;5.140;2023-03-23T06:34:04;7.63;;;1.77;;
65558;SDS011;52203;51.998;5.140;2023-03-23T06:36:30;6.97;;;1.80;;
65558;SDS011;52203;51.998;5.140;2023-03-23T06:38:56;6.72;;;2.08;;
65558;SDS011;52203;51.998;5.140;2023-03-23T06:41:22;9.95;;;2.00;;
65558;SDS011;52203;51.998;5.140;2023-03-23T06:43:47;8.18;;;2.20;;
65558;SDS011;52203;51.998;5.140;2023-03-23T06:46:13;8.25;;;1.75;;
65558;SDS011;52203;51.998;5.140;2023-03-23T06:48:39;4.90;;;2.53;;
65558;SDS011;52203;51.998;5.140;2023-03-23T06:51:04;8.18;;;2.10;;
65558;SDS011;52203;51.998;5.140;2023-03-23T06:53:30;4.07;;;1.88;;
65558;SDS011;52203;51.998;5.140;2023-03-23T06:55:56;6.43;;;2.05;;
65558;SDS011;52203;51.998;5.140;2023-03-23T06:58:22;7.55;;;1.90;;
65558;SDS011;52203;51.998;5.140;2023-03-23T07:00:52;6.97;;;2.33;;
65558;SDS011;52203;51.998;5.140;2023-03-23T07:03:21;5.40;;;1.92;;
65558;SDS011;52203;51.998;5.140;2023-03-23T07:05:47;11.07;;;2.80;;
65558;SDS011;52203;51.998;5.140;2023-03-23T07:08:14;4.57;;;1.67;;
65558;SDS011;52203;51.998;5.140;2023-03-23T07:10:39;3.58;;;1.70;;
65558;SDS011;52203;51.998;5.140;2023-03-23T07:13:05;9.75;;;2.53;;
65558;SDS011;52203;51.998;5.140;2023-03-23T07:15:31;9.90;;;2.38;;
65558;SDS011;52203;51.998;5.140;2023-03-23T07:17:57;6.88;;;1.70;;
65558;SDS011;52203;51.998;5.140;2023-03-23T07:20:22;10.43;;;2.28;;
65558;SDS011;52203;51.998;5.140;2023-03-23T07:22:48;7.43;;;1.73;;
65558;SDS011;52203;51.998;5.140;2023-03-23T07:25:14;4.88;;;1.70;;
65558;SDS011;52203;51.998;5.140;2023-03-23T07:27:41;6.05;;;2.28;;
65558;SDS011;52203;51.998;5.140;2023-03-23T07:30:06;5.95;;;2.30;;
65558;SDS011;52203;51.998;5.140;2023-03-23T07:32:32;4.80;;;1.67;;
65558;SDS011;52203;51.998;5.140;2023-03-23T07:34:58;6.60;;;2.10;;
65558;SDS011;52203;51.998;5.140;2023-03-23T07:37:24;5.72;;;2.70;;
65558;SDS011;52203;51.998;5.140;2023-03-23T07:39:50;9.80;;;2.63;;
65558;SDS011;52203;51.998;5.140;2023-03-23T07:42:16;9.20;;;3.15;;
65558;SDS011;52203;51.998;5.140;2023-03-23T07:44:41;8.15;;;2.78;;
65558;SDS011;52203;51.998;5.140;2023-03-23T07:47:07;9.18;;;2.58;;
65558;SDS011;52203;51.998;5.140;2023-03-23T07:49:32;7.57;;;2.28;;
65558;SDS011;52203;51.998;5.140;2023-03-23T07:51:58;9.77;;;2.58;;
65558;SDS011;52203;51.998;5.140;2023-03-23T07:54:26;5.18;;;2.28;;
65558;SDS011;52203;51.998;5.140;2023-03-23T07:56:52;7.05;;;2.08;;
65558;SDS011;52203;51.998;5.140;2023-03-23T07:59:17;8.88;;;2.47;;
65558;SDS011;52203;51.998;5.140;2023-03-23T08:01:43;5.40;;;1.95;;
65558;SDS011;52203;51.998;5.140;2023-03-23T08:04:08;11.43;;;2.45;;
65558;SDS011;52203;51.998;5.140;2023-03-23T08:06:34;6.57;;;1.90;;
65558;SDS011;52203;51.998;5.140;2023-03-23T08:09:00;8.38;;;2.10;;
65558;SDS011;52203;51.998;5.140;2023-03-23T08:11:28;7.45;;;2.13;;
65558;SDS011;52203;51.998;5.140;2023-03-23T08:13:54;9.30;;;2.33;;
65558;SDS011;52203;51.998;5.140;2023-03-23T08:16:19;5.88;;;2.00;;
65558;SDS011;52203;51.998;5.140;2023-03-23T08:18:45;4.70;;;2.42;;
65558;SDS011;52203;51.998;5.140;2023-03-23T08:21:12;4.35;;;1.90;;
65558;SDS011;52203;51.998;5.140;2023-03-23T08:23:38;5.75;;;2.53;;
65558;SDS011;52203;51.998;5.140;2023-03-23T08:26:06;7.97;;;2.25;;
65558;SDS011;52203;51.998;5.140;2023-03-23T08:28:33;7.60;;;2.17;;
65558;SDS011;52203;51.998;5.140;2023-03-23T08:30:59;5.40;;;2.30;;
65558;SDS011;52203;51.998;5.140;2023-03-23T08:33:25;8.32;;;2.13;;
65558;SDS011;52203;51.998;5.140;2023-03-23T08:35:56;10.18;;;1.92;;
65558;SDS011;52203;51.998;5.140;2023-03-23T08:38:23;7.50;;;2.10;;
65558;SDS011;52203;51.998;5.140;2023-03-23T08:40:49;5.38;;;1.67;;
65558;SDS011;52203;51.998;5.140;2023-03-23T08:43:17;5.70;;;1.88;;
65558;SDS011;52203;51.998;5.140;2023-03-23T08:45:49;7.60;;;2.03;;
65558;SDS011;52203;51.998;5.140;2023-03-23T08:48:16;8.13;;;1.92;;
65558;SDS011;52203;51.998;5.140;2023-03-23T08:50:42;6.68;;;1.92;;
65558;SDS011;52203;51.998;5.140;2023-03-23T08:53:08;7.13;;;1.70;;
65558;SDS011;52203;51.998;5.140;2023-03-23T08:55:34;7.53;;;1.70;;
65558;SDS011;52203;51.998;5.140;2023-03-23T08:57:59;4.05;;;1.85;;
65558;SDS011;52203;51.998;5.140;2023-03-23T09:00:25;8.07;;;1.95;;
65558;SDS011;52203;51.998;5.140;2023-03-23T09:02:53;5.80;;;2.03;;
65558;SDS011;52203;51.998;5.140;2023-03-23T09:05:21;5.85;;;1.88;;
65558;SDS011;52203;51.998;5.140;2023-03-23T09:07:53;3.42;;;1.27;;
65558;SDS011;52203;51.998;5.140;2023-03-23T09:10:21;7.65;;;1.70;;
65558;SDS011;52203;51.998;5.140;2023-03-23T09:12:49;7.07;;;1.85;;
65558;SDS011;52203;51.998;5.140;2023-03-23T09:15:17;5.95;;;1.80;;
65558;SDS011;52203;51.998;5.140;2023-03-23T09:17:46;5.75;;;1.90;;
65558;SDS011;52203;51.998;5.140;2023-03-23T09:20:14;8.27;;;2.30;;
65558;SDS011;52203;51.998;5.140;2023-03-23T09:22:42;8.52;;;2.00;;
65558;SDS011;52203;51.998;5.140;2023-03-23T09:25:10;10.85;;;2.10;;
65558;SDS011;52203;51.998;5.140;2023-03-23T09:27:37;7.68;;;1.88;;
65558;SDS011;52203;51.998;5.140;2023-03-23T09:30:05;8.95;;;2.33;;
65558;SDS011;52203;51.998;5.140;2023-03-23T09:32:33;5.35;;;1.30;;
65558;SDS011;52203;51.998;5.140;2023-03-23T09:35:03;6.88;;;1.90;;
65558;SDS011;52203;51.998;5.140;2023-03-23T09:37:32;7.50;;;1.88;;
65558;SDS011;52203;51.998;5.140;2023-03-23T09:40:00;6.60;;;1.67;;
65558;SDS011;52203;51.998;5.140;2023-03-23T09:45:27;11.82;;;2.17;;
65558;SDS011;52203;51.998;5.140;2023-03-23T09:50:42;8.80;;;1.70;;
65558;SDS011;52203;51.998;5.140;2023-03-23T09:53:16;6.15;;;1.83;;
65558;SDS011;52203;51.998;5.140;2023-03-23T09:55:47;6.00;;;1.77;;
65558;SDS011;52203;51.998;5.140;2023-03-23T09:58:29;5.30;;;1.52;;
65558;SDS011;52203;51.998;5.140;2023-03-23T10:05:59;5.22;;;1.48;;
65558;SDS011;52203;51.998;5.140;2023-03-23T10:08:26;6.53;;;1.50;;
65558;SDS011;52203;51.998;5.140;2023-03-23T10:13:46;9.52;;;1.90;;
65558;SDS011;52203;51.998;5.140;2023-03-23T10:16:23;9.13;;;1.85;;
65558;SDS011;52203;51.998;5.140;2023-03-23T10:21:29;11.32;;;2.40;;
65558;SDS011;52203;51.998;5.140;2023-03-23T10:23:58;11.00;;;2.17;;
65558;SDS011;52203;51.998;5.140;2023-03-23T10:26:47;6.85;;;1.73;;
65558;SDS011;52203;51.998;5.140;2023-03-23T10:29:24;8.75;;;2.03;;
65558;SDS011;52203;51.998;5.140;2023-03-23T10:34:42;5.88;;;1.70;;
65558;SDS011;52203;51.998;5.140;2023-03-23T10:39:53;8.23;;;2.17;;
65558;SDS011;52203;51.998;5.140;2023-03-23T10:42:22;5.57;;;2.28;;
65558;SDS011;52203;51.998;5.140;2023-03-23T10:44:53;8.10;;;2.10;;
65558;SDS011;52203;51.998;5.140;2023-03-23T10:47:19;13.30;;;2.45;;
65558;SDS011;52203;51.998;5.140;2023-03-23T10:49:53;7.57;;;2.00;;
65558;SDS011;52203;51.998;5.140;2023-03-23T10:57:28;6.20;;;2.08;;
65558;SDS011;52203;51.998;5.140;2023-03-23T11:00:03;10.73;;;2.08;;
65558;SDS011;52203;51.998;5.140;2023-03-23T11:02:44;10.90;;;2.05;;
65558;SDS011;52203;51.998;5.140;2023-03-23T11:05:23;8.52;;;1.90;;
65558;SDS011;52203;51.998;5.140;2023-03-23T11:07:54;8.15;;;1.65;;
65558;SDS011;52203;51.998;5.140;2023-03-23T11:10:26;9.20;;;2.10;;
65558;SDS011;52203;51.998;5.140;2023-03-23T11:12:59;5.93;;;1.73;;
65558;SDS011;52203;51.998;5.140;2023-03-23T11:17:56;9.15;;;1.83;;
65558;SDS011;52203;51.998;5.140;2023-03-23T11:20:27;5.43;;;1.70;;
65558;SDS011;52203;51.998;5.140;2023-03-23T11:22:54;7.57;;;1.67;;
65558;SDS011;52203;51.998;5.140;2023-03-23T11:25:21;9.65;;;2.35;;
65558;SDS011;52203;51.998;5.140;2023-03-23T11:27:47;5.88;;;1.77;;
65558;SDS011;52203;51.998;5.140;2023-03-23T11:30:26;8.20;;;2.42;;
65558;SDS011;52203;51.998;5.140;2023-03-23T11:32:55;10.77;;;2.33;;
65558;SDS011;52203;51.998;5.140;2023-03-23T11:35:26;8.13;;;2.25;;
65558;SDS011;52203;51.998;5.140;2023-03-23T11:37:57;8.82;;;2.35;;
65558;SDS011;52203;51.998;5.140;2023-03-23T11:40:25;7.60;;;1.90;;
65558;SDS011;52203;51.998;5.140;2023-03-23T11:48:39;7.80;;;1.60;;
65558;SDS011;52203;51.998;5.140;2023-03-23T11:56:30;6.72;;;1.70;;
65558;SDS011;52203;51.998;5.140;2023-03-23T11:59:02;7.90;;;1.85;;
65558;SDS011;52203;51.998;5.140;2023-03-23T12:01:40;6.43;;;1.55;;
65558;SDS011;52203;51.998;5.140;2023-03-23T12:09:54;7.38;;;2.10;;
65558;SDS011;52203;51.998;5.140;2023-03-23T12:15:08;4.63;;;1.40;;
65558;SDS011;52203;51.998;5.140;2023-03-23T12:21:00;5.93;;;1.63;;
65558;SDS011;52203;51.998;5.140;2023-03-23T12:23:50;5.45;;;1.48;;
65558;SDS011;52203;51.998;5.140;2023-03-23T12:26:38;6.90;;;1.58;;
65558;SDS011;52203;51.998;5.140;2023-03-23T12:48:34;5.00;;;1.70;;
65558;SDS011;52203;51.998;5.140;2023-03-23T12:51:27;5.07;;;1.98;;
65558;SDS011;52203;51.998;5.140;2023-03-23T12:59:36;3.47;;;1.27;;
65558;SDS011;52203;51.998;5.140;2023-03-23T13:04:52;5.70;;;1.60;;
65558;SDS011;52203;51.998;5.140;2023-03-23T13:07:28;8.40;;;1.20;;
65558;SDS011;52203;51.998;5.140;2023-03-23T13:10:01;5.15;;;1.60;;
65558;SDS011;52203;51.998;5.140;2023-03-23T13:12:38;8.18;;;1.95;;
65558;SDS011;52203;51.998;5.140;2023-03-23T13:23:29;5.00;;;1.50;;
65558;SDS011;52203;51.998;5.140;2023-03-23T13:26:14;10.52;;;2.10;;
65558;SDS011;52203;51.998;5.140;2023-03-23T13:28:49;10.32;;;2.10;;
65558;SDS011;52203;51.998;5.140;2023-03-23T13:31:22;7.85;;;2.53;;
65558;SDS011;52203;51.998;5.140;2023-03-23T13:34:03;10.05;;;2.00;;
65558;SDS011;52203;51.998;5.140;2023-03-23T13:36:38;7.38;;;1.67;;
65558;SDS011;52203;51.998;5.140;2023-03-23T13:39:06;9.07;;;2.10;;
65558;SDS011;52203;51.998;5.140;2023-03-23T13:44:38;5.85;;;1.90;;
65558;SDS011;52203;51.998;5.140;2023-03-23T13:47:08;5.88;;;1.60;;
65558;SDS011;52203;51.998;5.140;2023-03-23T14:03:02;5.15;;;1.80;;
65558;SDS011;52203;51.998;5.140;2023-03-23T14:05:39;3.97;;;1.70;;
65558;SDS011;52203;51.998;5.140;2023-03-23T14:10:35;5.40;;;1.80;;
65558;SDS011;52203;51.998;5.140;2023-03-23T14:13:05;8.00;;;1.95;;
65558;SDS011;52203;51.998;5.140;2023-03-23T14:15:43;7.32;;;2.30;;
65558;SDS011;52203;51.998;5.140;2023-03-23T14:18:18;6.47;;;1.80;;
65558;SDS011;52203;51.998;5.140;2023-03-23T14:20:46;11.30;;;1.80;;
65558;SDS011;52203;51.998;5.140;2023-03-23T14:23:17;4.95;;;1.80;;
65558;SDS011;52203;51.998;5.140;2023-03-23T14:25:44;5.25;;;1.90;;
65558;SDS011;52203;51.998;5.140;2023-03-23T14:28:20;9.40;;;1.80;;
65558;SDS011;52203;51.998;5.140;2023-03-23T14:30:47;6.18;;;1.67;;
65558;SDS011;52203;51.998;5.140;2023-03-23T14:33:17;11.10;;;1.77;;
65558;SDS011;52203;51.998;5.140;2023-03-23T14:35:45;6.15;;;1.85;;
65558;SDS011;52203;51.998;5.140;2023-03-23T14:38:17;8.20;;;2.25;;
65558;SDS011;52203;51.998;5.140;2023-03-23T14:40:48;6.28;;;1.63;;
65558;SDS011;52203;51.998;5.140;2023-03-23T14:43:15;12.73;;;2.28;;
65558;SDS011;52203;51.998;5.140;2023-03-23T14:45:45;7.78;;;2.20;;
65558;SDS011;52203;51.998;5.140;2023-03-23T14:48:17;5.80;;;1.63;;
65558;SDS011;52203;51.998;5.140;2023-03-23T14:50:50;9.63;;;2.17;;
65558;SDS011;52203;51.998;5.140;2023-03-23T14:53:38;6.95;;;1.40;;
65558;SDS011;52203;51.998;5.140;2023-03-23T14:56:11;4.72;;;1.42;;
65558;SDS011;52203;51.998;5.140;2023-03-23T14:58:43;9.15;;;2.28;;
65558;SDS011;52203;51.998;5.140;2023-03-23T15:01:14;7.75;;;2.45;;
65558;SDS011;52203;51.998;5.140;2023-03-23T15:04:09;11.40;;;1.83;;
65558;SDS011;52203;51.998;5.140;2023-03-23T15:06:34;6.00;;;1.95;;
65558;SDS011;52203;51.998;5.140;2023-03-23T15:09:04;7.00;;;1.77;;
65558;SDS011;52203;51.998;5.140;2023-03-23T15:11:33;8.77;;;1.67;;
65558;SDS011;52203;51.998;5.140;2023-03-23T15:14:09;10.85;;;1.95;;
65558;SDS011;52203;51.998;5.140;2023-03-23T15:16:52;5.57;;;1.42;;
65558;SDS011;52203;51.998;5.140;2023-03-23T15:19:25;8.88;;;2.55;;
65558;SDS011;52203;51.998;5.140;2023-03-23T15:22:04;9.25;;;2.25;;
65558;SDS011;52203;51.998;5.140;2023-03-23T15:24:33;8.95;;;1.95;;
65558;SDS011;52203;51.998;5.140;2023-03-23T15:29:31;9.82;;;1.85;;
65558;SDS011;52203;51.998;5.140;2023-03-23T15:31:57;7.45;;;1.83;;
65558;SDS011;52203;51.998;5.140;2023-03-23T15:34:29;5.32;;;1.77;;
65558;SDS011;52203;51.998;5.140;2023-03-23T15:37:04;8.10;;;2.10;;
65558;SDS011;52203;51.998;5.140;2023-03-23T15:39:52;8.55;;;2.03;;
65558;SDS011;52203;51.998;5.140;2023-03-23T15:42:29;6.40;;;1.83;;
65558;SDS011;52203;51.998;5.140;2023-03-23T15:45:12;8.93;;;2.20;;
65558;SDS011;52203;51.998;5.140;2023-03-23T15:47:47;8.52;;;1.67;;
65558;SDS011;52203;51.998;5.140;2023-03-23T15:52:40;10.60;;;2.20;;
65558;SDS011;52203;51.998;5.140;2023-03-23T15:57:50;6.85;;;1.80;;
65558;SDS011;52203;51.998;5.140;2023-03-23T16:00:17;6.72;;;2.00;;
65558;SDS011;52203;51.998;5.140;2023-03-23T16:02:45;7.32;;;2.28;;
65558;SDS011;52203;51.998;5.140;2023-03-23T16:05:13;10.32;;;2.10;;
65558;SDS011;52203;51.998;5.140;2023-03-23T16:07:39;7.18;;;2.80;;
65558;SDS011;52203;51.998;5.140;2023-03-23T16:10:05;6.72;;;1.95;;
65558;SDS011;52203;51.998;5.140;2023-03-23T16:12:32;6.47;;;2.10;;
65558;SDS011;52203;51.998;5.140;2023-03-23T16:14:57;7.63;;;2.28;;
65558;SDS011;52203;51.998;5.140;2023-03-23T16:17:23;6.93;;;2.05;;
65558;SDS011;52203;51.998;5.140;2023-03-23T16:19:50;8.20;;;2.20;;
65558;SDS011;52203;51.998;5.140;2023-03-23T16:22:15;9.73;;;2.35;;
65558;SDS011;52203;51.998;5.140;2023-03-23T16:24:41;9.20;;;2.83;;
65558;SDS011;52203;51.998;5.140;2023-03-23T16:27:08;11.27;;;2.58;;
65558;SDS011;52203;51.998;5.140;2023-03-23T16:29:35;9.75;;;2.25;;
65558;SDS011;52203;51.998;5.140;2023-03-23T16:32:00;9.52;;;2.15;;
65558;SDS011;52203;51.998;5.140;2023-03-23T16:34:26;12.25;;;2.28;;
65558;SDS011;52203;51.998;5.140;2023-03-23T16:36:53;8.68;;;2.00;;
65558;SDS011;52203;51.998;5.140;2023-03-23T16:39:20;8.25;;;2.30;;
65558;SDS011;52203;51.998;5.140;2023-03-23T16:41:49;9.27;;;2.42;;
65558;SDS011;52203;51.998;5.140;2023-03-23T16:44:15;8.95;;;2.00;;
65558;SDS011;52203;51.998;5.140;2023-03-23T16:46:40;7.43;;;1.83;;
65558;SDS011;52203;51.998;5.140;2023-03-23T16:49:06;11.73;;;2.50;;
65558;SDS011;52203;51.998;5.140;2023-03-23T16:51:32;10.85;;;2.15;;
65558;SDS011;52203;51.998;5.140;2023-03-23T16:53:57;8.73;;;2.45;;
65558;SDS011;52203;51.998;5.140;2023-03-23T16:56:23;7.47;;;2.22;;
65558;SDS011;52203;51.998;5.140;2023-03-23T16:58:48;9.20;;;2.25;;
65558;SDS011;52203;51.998;5.140;2023-03-23T17:01:14;10.23;;;2.30;;
65558;SDS011;52203;51.998;5.140;2023-03-23T17:03:40;9.82;;;2.20;;
65558;SDS011;52203;51.998;5.140;2023-03-23T17:06:07;8.70;;;1.80;;
65558;SDS011;52203;51.998;5.140;2023-03-23T17:08:33;6.72;;;2.05;;
65558;SDS011;52203;51.998;5.140;2023-03-23T17:10:59;12.02;;;2.20;;
65558;SDS011;52203;51.998;5.140;2023-03-23T17:13:25;11.20;;;2.47;;
65558;SDS011;52203;51.998;5.140;2023-03-23T17:15:52;7.15;;;2.00;;
65558;SDS011;52203;51.998;5.140;2023-03-23T17:18:20;6.57;;;1.80;;